Latest Weather Observations for Coldstream

IDV60801

Issued at 7:32 pm EST Sunday 20 August 2017 (issued every 30 minutes, with the page automatically refreshed every 10 minutes)

About weather observations | Map of weather stations | Latest weather observations for VIC | Other Formats
Station Details ID: 086383 Name: COLDSTREAM Lat: -37.72 Lon: 145.41 Height: 83.0 m
Data from the previous 72 hours. | See also: Recent months at Coldstream
Date/Time
EST
Temp
°C
App
Temp
°C
Dew
Point
°C
Rel
Hum
%
Delta-T
°C
Wind Press
QNH
hPa
Press
MSL
hPa
Rain since
9am
mm
Dir  Spd
km/h
Gust
km/h
Spd
kts
Gust
kts
20/07:30pm 5.1 3.9 4.5 96 0.3 CALM 0 0 0 0 1019.9 1020.0 0.2
20/07:00pm 5.4 4.2 4.4 93 0.4 CALM 0 0 0 0 1020.2 1020.3 0.2
20/06:30pm 5.7 3.7 4.2 90 0.6 S 4 7 2 4 1020.2 1020.3 0.2
20/06:00pm 6.0 4.5 3.0 81 1.2 CALM 0 0 0 0 1020.1 1020.2 0.2
20/05:30pm 10.0 8.7 4.0 66 2.7 CALM 0 0 0 0 1019.9 1020.0 0.2
20/05:00pm 11.3 9.6 2.1 53 3.9 CALM 0 0 0 0 1019.9 1020.0 0.2
20/04:30pm 13.2 11.4 1.5 45 5.0 CALM 0 0 0 0 1020.1 1020.2 0.2
20/04:00pm 12.1 9.3 2.3 51 4.2 E 6 9 3 5 1020.3 1020.4 0.2
20/03:30pm 12.0 9.1 2.5 52 4.1 SE 7 11 4 6 1020.8 1020.9 0.2
20/03:00pm 12.5 10.6 2.7 51 4.3 S 2 7 1 4 1021.2 1021.3 0.2
20/02:30pm 12.3 9.6 2.5 51 4.3 S 6 11 3 6 1021.8 1022.0 0.2
20/02:00pm 11.9 9.0 1.3 48 4.5 SSW 6 9 3 5 1022.3 1022.5 0.2
20/01:30pm 12.0 9.0 1.9 50 4.3 SSE 7 13 4 7 1022.9 1023.1 0.2
20/01:00pm 11.9 9.8 3.7 57 3.6 WSW 4 9 2 5 1023.4 1023.6 0.2
20/12:30pm 11.0 8.5 3.8 61 3.2 E 6 9 3 5 1024.0 1024.2 0.2
20/12:00pm 10.2 7.9 5.0 70 2.3 W 6 9 3 5 1024.8 1025.0 0.2
20/11:30am 10.0 8.7 6.2 77 1.8 ESE 2 6 1 3 1025.4 1025.6 0.2
20/11:00am 8.8 7.2 6.4 85 1.1 ESE 4 9 2 5 1026.0 1026.2 0.2
20/10:30am 7.9 6.6 7.8 99 0.0 E 4 9 2 5 1026.4 1026.6 0.2
20/10:00am 6.2 4.5 6.1 99 0.0 N 4 9 2 5 1027.2 1027.3 0.2
20/09:30am 6.0 4.3 5.9 99 0.0 E 4 7 2 4 1027.5 1027.6 0.0
20/09:00am 4.5 2.1 4.4 99 0.0 SE 6 7 3 4 1027.6 1027.7 1.0
20/08:30am 3.9 1.4 3.8 99 0.0 SE 6 11 3 6 1027.8 1027.9 1.0
20/08:00am 2.7 1.1 2.6 99 0.0 CALM 0 0 0 0 1027.4 1027.5 1.0
20/07:30am 1.1 -0.7 1.0 99 0.0 CALM 0 0 0 0 1027.5 1027.6 1.0
20/07:00am 1.1 -0.7 1.0 99 0.0 CALM 0 0 0 0 1027.4 1027.5 1.0
20/06:30am 1.4 -0.4 1.3 99 0.0 CALM 0 0 0 0 1027.4 1027.5 1.0
20/06:00am 1.6 -0.2 1.5 99 0.0 CALM 0 0 0 0 1027.2 1027.3 1.0
20/05:30am 1.5 -0.3 1.4 99 0.0 CALM 0 0 0 0 1027.2 1027.3 1.0
20/05:00am 1.4 -0.8 1.3 99 0.0 NNE 2 7 1 4 1027.1 1027.2 1.0
20/04:30am 1.7 -1.2 1.6 99 0.0 N 6 9 3 5 1027.0 1027.1 1.0
20/04:00am 1.8 -1.1 1.7 99 0.0 W 6 7 3 4 1026.7 1026.8 1.0
20/03:30am 2.1 0.4 2.0 99 0.0 CALM 0 7 0 4 1026.6 1026.7 1.0
20/03:00am 2.3 0.7 2.2 99 0.0 CALM 0 6 0 3 1027.0 1027.1 1.0
20/02:30am 1.5 -1.0 1.4 99 0.0 WNW 4 7 2 4 1026.8 1026.9 1.0
20/02:00am 1.5 -1.4 1.4 99 0.0 ESE 6 7 3 4 1026.8 1026.9 1.0
20/01:30am 1.0 -1.6 0.9 99 0.0 SE 4 7 2 4 1027.3 1027.4 1.0
20/01:00am 0.7 -1.2 0.6 99 0.0 CALM 0 0 0 0 1027.5 1027.6 1.0
20/12:30am -0.3 -2.3 -0.4 99 0.0 CALM 0 0 0 0 1027.7 1027.8 1.0
20/12:00am -0.4 -2.8 -0.5 99 0.0 SE 2 6 1 3 1027.6 1027.7 1.0
 
Date/Time
EST
Temp
°C
App
Temp
°C
Dew
Point
°C
Rel
Hum
%
Delta-T
°C
Wind Press
QNH
hPa
Press
MSL
hPa
Rain since
9am
mm
Dir  Spd
km/h
Gust
km/h
Spd
kts
Gust
kts
19/11:30pm -0.2 -2.2 -0.3 99 0.0 CALM 0 0 0 0 1027.8 1027.9 1.0
19/11:00pm 0.3 -1.7 0.2 99 0.0 CALM 0 6 0 3 1027.8 1027.9 1.0
19/10:30pm 0.3 -2.0 0.2 99 0.0 SSW 2 9 1 5 1027.7 1027.8 1.0
19/10:00pm 0.3 -1.7 0.2 99 0.0 CALM 0 0 0 0 1027.6 1027.7 1.0
19/09:30pm 0.9 -1.0 0.8 99 0.0 CALM 0 0 0 0 1027.4 1027.5 1.0
19/09:00pm 1.6 -0.2 1.3 98 0.1 CALM 0 4 0 2 1027.5 1027.6 1.0
19/08:30pm 2.1 0.4 1.7 97 0.2 CALM 0 0 0 0 1027.3 1027.4 1.0
19/08:00pm 3.4 1.8 2.7 95 0.3 CALM 0 0 0 0 1027.2 1027.3 1.0
19/07:30pm 4.7 3.3 3.5 92 0.5 CALM 0 0 0 0 1027.3 1027.4 1.0
19/07:00pm 6.0 4.0 4.6 91 0.6 E 4 9 2 5 1027.3 1027.4 1.0
19/06:30pm 6.8 4.2 4.3 84 1.1 S 7 9 4 5 1027.1 1027.2 1.0
19/06:00pm 7.7 5.1 4.3 79 1.5 SSE 7 11 4 6 1026.8 1026.9 1.0
19/05:30pm 8.6 5.9 3.8 72 2.1 SSE 7 13 4 7 1026.8 1026.9 1.0
19/05:00pm 9.7 6.7 4.3 69 2.4 SE 9 13 5 7 1026.6 1026.7 1.0
19/04:30pm 9.1 6.1 3.9 70 2.3 S 9 15 5 8 1026.4 1026.6 1.0
19/04:00pm 9.5 6.6 4.5 71 2.2 S 9 15 5 8 1026.2 1026.4 1.0
19/03:30pm 9.2 7.4 5.4 77 1.7 SSE 4 7 2 4 1026.1 1026.3 1.0
19/03:00pm 8.6 5.9 5.4 80 1.4 SE 9 15 5 8 1026.2 1026.4 1.0
19/02:30pm 10.3 8.6 7.7 84 1.3 WNW 6 9 3 5 1026.1 1026.3 1.0
19/02:00pm 8.1 5.2 6.7 91 0.6 WSW 11 15 6 8 1026.2 1026.4 1.0
19/01:30pm 9.3 6.7 5.9 79 1.6 W 9 13 5 7 1026.2 1026.4 0.6
19/01:00pm 9.2 6.6 6.1 81 1.4 SSE 9 17 5 9 1026.2 1026.4 0.6
19/12:30pm 8.0 5.4 6.1 88 0.9 S 9 13 5 7 1026.1 1026.3 0.6
19/12:00pm 9.9 7.2 5.7 75 1.9 SSE 9 24 5 13 1026.2 1026.4 0.2
19/11:30am 8.5 5.8 5.6 82 1.3 S 9 15 5 8 1026.3 1026.5 0.2
19/11:00am 8.4 6.5 6.9 90 0.7 SSW 6 9 3 5 1026.6 1026.7 0.2
19/10:30am 7.6 5.2 7.2 97 0.2 SW 9 15 5 8 1026.6 1026.7 0.2
19/10:00am 6.8 5.3 6.7 99 0.0 WSW 4 9 2 5 1026.2 1026.4 0.2
19/09:30am 6.6 5.0 6.5 99 0.0 W 4 13 2 7 1026.0 1026.2 0.0
19/09:00am 6.0 5.1 5.9 99 0.0 CALM 0 4 0 2 1025.8 1026.0 11.8
19/08:30am 5.7 4.7 5.6 99 0.0 CALM 0 0 0 0 1025.2 1025.4 11.8
19/08:00am 5.1 3.6 5.0 99 0.0 WNW 2 6 1 3 1024.8 1025.0 11.6
19/07:30am 5.0 3.5 4.9 99 0.0 SSW 2 7 1 4 1024.4 1024.6 11.6
19/07:00am 4.4 3.1 4.3 99 0.0 CALM 0 0 0 0 1023.8 1024.0 11.4
19/06:30am 3.7 1.9 3.6 99 0.0 E 2 6 1 3 1023.3 1023.5 11.4
19/06:00am 5.2 3.7 5.1 99 0.0 WSW 2 7 1 4 1022.8 1023.0 11.4
19/05:30am 5.5 4.1 5.4 99 0.0 WSW 2 7 1 4 1022.5 1022.7 11.4
19/05:00am 5.6 3.8 5.5 99 0.0 WNW 4 7 2 4 1022.1 1022.3 11.4
19/04:30am 5.5 2.0 5.4 99 0.0 W 13 19 7 10 1021.6 1021.7 11.4
19/04:00am 5.5 2.0 5.4 99 0.0 WNW 13 19 7 10 1021.2 1021.3 11.2
19/03:30am 5.6 2.1 5.5 99 0.0 W 13 17 7 9 1021.3 1021.4 11.0
19/03:00am 5.5 2.0 5.4 99 0.0 WNW 13 17 7 9 1020.9 1021.0 10.8
19/02:30am 6.2 2.8 6.1 99 0.0 W 13 17 7 9 1020.9 1021.0 10.8
19/02:00am 6.2 3.2 6.1 99 0.0 WNW 11 15 6 8 1020.7 1020.8 10.8
19/01:30am 6.4 3.8 6.3 99 0.0 W 9 13 5 7 1020.7 1020.8 10.6
19/01:00am 6.4 3.5 6.3 99 0.0 WNW 11 13 6 7 1020.5 1020.6 10.4
19/12:30am 6.6 4.5 6.5 99 0.0 WNW 7 13 4 7 1020.4 1020.5 10.4
19/12:00am 6.5 4.5 6.4 99 0.0 NNW 6 9 3 5 1020.3 1020.4 10.2
 
Date/Time
EST
Temp
°C
App
Temp
°C
Dew
Point
°C
Rel
Hum
%
Delta-T
°C
Wind Press
QNH
hPa
Press
MSL
hPa
Rain since
9am
mm
Dir  Spd
km/h
Gust
km/h
Spd
kts
Gust
kts
18/11:30pm 6.5 5.3 6.4 99 0.0 N 2 7 1 4 1020.0 1020.1 10.2
18/11:00pm 6.4 4.4 6.3 99 0.0 SW 6 19 3 10 1019.9 1020.0 10.2
18/10:30pm 6.6 3.3 6.3 98 0.1 W 13 24 7 13 1019.5 1019.6 10.0
18/10:00pm 6.5 2.8 6.4 99 0.0 WSW 15 22 8 12 1019.4 1019.5 9.4
18/09:30pm 6.6 4.5 6.5 99 0.0 WNW 7 15 4 8 1018.9 1019.0 8.2
18/09:00pm 6.6 4.5 6.5 99 0.0 W 7 11 4 6 1018.9 1019.0 7.8
18/08:30pm 6.4 4.4 6.1 98 0.1 W 6 19 3 10 1018.2 1018.3 6.4
18/08:00pm 6.4 4.3 6.0 97 0.2 W 6 11 3 6 1017.8 1017.9 4.0
18/07:30pm 6.5 1.8 5.9 96 0.3 WSW 20 32 11 17 1017.6 1017.7 3.8
18/07:00pm 7.3 4.7 6.1 92 0.5 W 9 15 5 8 1016.7 1016.8 1.4
18/06:30pm 7.1 3.0 6.0 93 0.5 WSW 17 26 9 14 1016.3 1016.4 1.4
18/06:00pm 7.7 3.0 5.0 83 1.2 W 19 30 10 16 1015.6 1015.7 0.6
18/05:30pm 8.4 1.6 5.0 79 1.5 W 30 41 16 22 1014.9 1015.0 0.6
18/05:00pm 9.5 4.5 4.5 71 2.2 W 20 43 11 23 1014.5 1014.6 0.4
18/04:30pm 9.4 6.4 5.8 78 1.7 NW 11 17 6 9 1013.9 1014.1 0.4
18/04:00pm 9.9 5.7 5.5 74 2.0 W 17 24 9 13 1013.3 1013.5 0.4
18/03:30pm 8.7 4.2 6.2 84 1.2 WSW 19 30 10 16 1013.1 1013.3 0.4
18/03:04pm 8.9 2.5 5.3 78 1.6 W 28 61 15 33 1012.4 1012.6 0.2
18/03:00pm 10.0 4.8 5.4 73 2.1 W 22 35 12 19 1012.2 1012.4 0.0
18/02:30pm 9.9 5.0 5.3 73 2.1 WNW 20 35 11 19 1011.8 1012.0 0.0
18/02:00pm 9.7 3.9 4.5 70 2.3 W 24 37 13 20 1011.6 1011.7 0.0
18/01:30pm 9.2 1.1 3.2 66 2.6 W 35 54 19 29 1011.2 1011.3 0.0
18/01:16pm 9.7 2.1 3.9 67 2.6 WSW 33 56 18 30 1010.8 1010.9 0.0
18/01:00pm 10.4 3.4 4.3 66 2.7 WSW 30 39 16 21 1010.7 1010.8 0.0
18/12:30pm 10.6 3.6 4.1 64 2.9 WSW 30 43 16 23 1010.6 1010.7 0.0
18/12:00pm 11.1 4.6 4.8 65 2.9 W 28 44 15 24 1010.5 1010.6 0.0
18/11:55am 10.3 3.4 4.5 67 2.6 W 30 48 16 26 1010.5 1010.6 0.0
18/11:30am 10.2 4.3 4.1 66 2.7 W 24 41 13 22 1010.3 1010.4 0.0
18/11:00am 9.4 3.5 4.0 69 2.4 W 24 33 13 18 1010.3 1010.4 0.0
18/10:30am 9.3 3.7 3.5 67 2.5 WNW 22 30 12 16 1010.2 1010.3 0.0
18/10:00am 9.6 3.6 3.4 65 2.7 WNW 24 44 13 24 1009.6 1009.7 0.0
18/09:30am 9.5 3.6 3.7 67 2.5 WNW 24 37 13 20 1009.5 1009.6 0.0
18/09:00am 9.1 3.2 4.1 71 2.2 WNW 24 37 13 20 1009.2 1009.3 6.6
18/08:30am 8.6 4.1 4.2 74 1.9 WNW 17 26 9 14 1008.9 1009.0 6.6
18/08:00am 7.9 3.3 3.9 76 1.7 WNW 17 24 9 13 1008.4 1008.5 6.6
18/07:30am 7.6 3.1 4.0 78 1.6 WNW 17 28 9 15 1007.9 1008.0 6.6
18/07:00am 7.8 3.2 3.8 76 1.7 WNW 17 33 9 18 1007.4 1007.5 6.4
18/06:30am 7.8 2.6 3.7 75 1.8 WNW 20 32 11 17 1007.0 1007.1 6.4
18/06:00am 8.3 4.0 3.0 69 2.3 WNW 15 22 8 12 1006.5 1006.6 6.2
18/05:30am 8.4 3.8 3.5 71 2.1 NW 17 28 9 15 1006.1 1006.2 6.2
18/05:00am 8.4 4.1 3.3 70 2.2 NW 15 22 8 12 1005.5 1005.6 6.2
18/04:30am 8.4 3.8 3.5 71 2.1 NW 17 26 9 14 1005.5 1005.6 6.2
18/04:00am 8.4 3.3 3.3 70 2.2 NW 19 30 10 16 1005.3 1005.4 6.2
18/03:30am 8.2 4.3 3.5 72 2.0 NW 13 22 7 12 1004.9 1005.0 6.2
18/03:00am 7.8 3.5 3.3 73 1.9 NNW 15 24 8 13 1004.9 1005.0 6.2
18/02:30am 8.3 3.3 3.6 72 2.0 NNW 19 30 10 16 1004.9 1005.0 6.2
18/02:00am 8.2 4.0 3.9 74 1.9 NW 15 24 8 13 1005.1 1005.2 6.2
18/01:30am 8.3 4.1 3.8 73 2.0 NNW 15 20 8 11 1004.8 1004.9 6.2
18/01:00am 8.5 4.7 3.9 73 2.0 NNW 13 20 7 11 1005.0 1005.1 6.2
18/12:30am 8.4 4.7 4.2 75 1.8 NW 13 20 7 11 1005.1 1005.2 6.2
18/12:00am 8.7 5.4 4.7 76 1.8 NW 11 17 6 9 1005.0 1005.1 6.2
 
Date/Time
EST
Temp
°C
App
Temp
°C
Dew
Point
°C
Rel
Hum
%
Delta-T
°C
Wind Press
QNH
hPa
Press
MSL
hPa
Rain since
9am
mm
Dir  Spd
km/h
Gust
km/h
Spd
kts
Gust
kts
17/11:30pm 8.8 5.5 4.8 76 1.8 NW 11 20 6 11 1004.8 1004.9 6.2
17/11:00pm 8.6 4.9 4.6 76 1.8 NW 13 24 7 13 1004.5 1004.6 6.2
17/10:30pm 8.4 4.3 4.2 75 1.8 NW 15 22 8 12 1004.5 1004.6 6.2
17/10:00pm 7.9 4.1 3.9 76 1.7 NW 13 24 7 13 1004.7 1004.8 6.2
17/09:30pm 8.0 3.9 4.4 78 1.6 NW 15 24 8 13 1004.9 1005.0 6.2
17/09:00pm 7.9 4.3 5.2 83 1.2 NNW 13 22 7 12 1004.5 1004.6 6.2
17/08:30pm 8.2 3.7 6.3 88 0.9 NW 19 30 10 16 1004.2 1004.3 6.2
17/08:00pm 8.5 4.0 6.1 85 1.1 WNW 19 32 10 17 1004.6 1004.7 6.0

Other Formats:

Comma delimited format used in spreadsheet applications
http://www.bom.gov.au/fwo/IDV60801/IDV60801.94864.axf

JavaScript Object Notation format (JSON) in row-major order
http://www.bom.gov.au/fwo/IDV60801/IDV60801.94864.json